sensor_id;sensor_type;location;lat;lon;timestamp;P1;durP1;ratioP1;P2;durP2;ratioP2
11037;SDS011;5572;49.540;11.932;2022-10-17T00:00:33;2.63;;;2.43;;
11037;SDS011;5572;49.540;11.932;2022-10-17T00:03:00;2.20;;;2.00;;
11037;SDS011;5572;49.540;11.932;2022-10-17T00:05:28;2.73;;;2.07;;
11037;SDS011;5572;49.540;11.932;2022-10-17T00:07:54;2.07;;;1.87;;
11037;SDS011;5572;49.540;11.932;2022-10-17T00:10:21;2.20;;;2.10;;
11037;SDS011;5572;49.540;11.932;2022-10-17T00:12:48;3.93;;;2.13;;
11037;SDS011;5572;49.540;11.932;2022-10-17T00:15:16;2.13;;;1.93;;
11037;SDS011;5572;49.540;11.932;2022-10-17T00:17:43;2.57;;;2.27;;
11037;SDS011;5572;49.540;11.932;2022-10-17T00:20:10;1.97;;;1.67;;
11037;SDS011;5572;49.540;11.932;2022-10-17T00:22:38;6.80;;;2.37;;
11037;SDS011;5572;49.540;11.932;2022-10-17T00:25:05;4.00;;;2.43;;
11037;SDS011;5572;49.540;11.932;2022-10-17T00:27:33;4.30;;;2.40;;
11037;SDS011;5572;49.540;11.932;2022-10-17T00:29:59;2.60;;;2.40;;
11037;SDS011;5572;49.540;11.932;2022-10-17T00:32:26;2.50;;;2.30;;
11037;SDS011;5572;49.540;11.932;2022-10-17T00:34:52;2.57;;;2.37;;
11037;SDS011;5572;49.540;11.932;2022-10-17T00:37:19;3.57;;;2.57;;
11037;SDS011;5572;49.540;11.932;2022-10-17T00:39:46;2.30;;;2.20;;
11037;SDS011;5572;49.540;11.932;2022-10-17T00:42:13;6.67;;;3.07;;
11037;SDS011;5572;49.540;11.932;2022-10-17T00:47:24;8.50;;;3.50;;
11037;SDS011;5572;49.540;11.932;2022-10-17T00:49:51;9.17;;;5.30;;
11037;SDS011;5572;49.540;11.932;2022-10-17T00:52:18;6.37;;;4.50;;
11037;SDS011;5572;49.540;11.932;2022-10-17T00:54:48;10.67;;;4.83;;
11037;SDS011;5572;49.540;11.932;2022-10-17T00:57:16;4.63;;;3.47;;
11037;SDS011;5572;49.540;11.932;2022-10-17T00:59:43;13.63;;;5.07;;
11037;SDS011;5572;49.540;11.932;2022-10-17T01:02:13;3.07;;;2.60;;
11037;SDS011;5572;49.540;11.932;2022-10-17T01:04:41;3.43;;;2.37;;
11037;SDS011;5572;49.540;11.932;2022-10-17T01:07:07;3.30;;;2.30;;
11037;SDS011;5572;49.540;11.932;2022-10-17T01:09:34;2.30;;;2.10;;
11037;SDS011;5572;49.540;11.932;2022-10-17T01:12:03;3.33;;;2.70;;
11037;SDS011;5572;49.540;11.932;2022-10-17T01:14:35;3.23;;;2.90;;
11037;SDS011;5572;49.540;11.932;2022-10-17T01:17:06;3.53;;;2.37;;
11037;SDS011;5572;49.540;11.932;2022-10-17T01:19:45;3.27;;;2.40;;
11037;SDS011;5572;49.540;11.932;2022-10-17T01:22:15;2.77;;;2.50;;
11037;SDS011;5572;49.540;11.932;2022-10-17T01:24:47;3.33;;;2.90;;
11037;SDS011;5572;49.540;11.932;2022-10-17T01:30:17;15.27;;;4.00;;
11037;SDS011;5572;49.540;11.932;2022-10-17T01:32:50;3.53;;;3.23;;
11037;SDS011;5572;49.540;11.932;2022-10-17T01:35:20;2.60;;;2.40;;
11037;SDS011;5572;49.540;11.932;2022-10-17T01:37:49;4.23;;;2.73;;
11037;SDS011;5572;49.540;11.932;2022-10-17T01:40:19;3.17;;;2.30;;
11037;SDS011;5572;49.540;11.932;2022-10-17T01:42:50;2.77;;;2.53;;
11037;SDS011;5572;49.540;11.932;2022-10-17T01:45:18;3.23;;;2.40;;
11037;SDS011;5572;49.540;11.932;2022-10-17T01:47:46;5.50;;;3.17;;
11037;SDS011;5572;49.540;11.932;2022-10-17T01:50:17;3.33;;;2.90;;
11037;SDS011;5572;49.540;11.932;2022-10-17T01:52:46;15.10;;;3.10;;
11037;SDS011;5572;49.540;11.932;2022-10-17T01:55:13;4.10;;;2.80;;
11037;SDS011;5572;49.540;11.932;2022-10-17T01:57:42;7.17;;;3.57;;
11037;SDS011;5572;49.540;11.932;2022-10-17T02:00:12;4.57;;;3.20;;
11037;SDS011;5572;49.540;11.932;2022-10-17T02:02:40;2.97;;;2.77;;
11037;SDS011;5572;49.540;11.932;2022-10-17T02:05:06;23.80;;;3.50;;
11037;SDS011;5572;49.540;11.932;2022-10-17T02:07:35;14.13;;;2.87;;
11037;SDS011;5572;49.540;11.932;2022-10-17T02:10:01;16.87;;;2.97;;
11037;SDS011;5572;49.540;11.932;2022-10-17T02:12:34;7.47;;;2.90;;
11037;SDS011;5572;49.540;11.932;2022-10-17T02:15:16;32.47;;;3.20;;
11037;SDS011;5572;49.540;11.932;2022-10-17T02:17:47;6.43;;;2.80;;
11037;SDS011;5572;49.540;11.932;2022-10-17T02:20:17;2.57;;;2.37;;
11037;SDS011;5572;49.540;11.932;2022-10-17T02:22:48;7.57;;;3.13;;
11037;SDS011;5572;49.540;11.932;2022-10-17T02:25:19;14.03;;;2.87;;
11037;SDS011;5572;49.540;11.932;2022-10-17T02:27:50;4.23;;;2.97;;
11037;SDS011;5572;49.540;11.932;2022-10-17T02:30:20;2.50;;;2.30;;
11037;SDS011;5572;49.540;11.932;2022-10-17T02:32:49;4.20;;;2.80;;
11037;SDS011;5572;49.540;11.932;2022-10-17T02:35:17;4.93;;;3.53;;
11037;SDS011;5572;49.540;11.932;2022-10-17T02:37:46;8.63;;;3.03;;
11037;SDS011;5572;49.540;11.932;2022-10-17T02:40:13;31.43;;;5.27;;
11037;SDS011;5572;49.540;11.932;2022-10-17T02:42:41;3.63;;;3.33;;
11037;SDS011;5572;49.540;11.932;2022-10-17T02:45:09;24.53;;;7.50;;
11037;SDS011;5572;49.540;11.932;2022-10-17T02:47:36;7.10;;;3.73;;
11037;SDS011;5572;49.540;11.932;2022-10-17T02:50:06;10.70;;;5.07;;
11037;SDS011;5572;49.540;11.932;2022-10-17T02:52:33;16.00;;;4.23;;
11037;SDS011;5572;49.540;11.932;2022-10-17T02:55:04;10.30;;;3.83;;
11037;SDS011;5572;49.540;11.932;2022-10-17T02:57:34;7.97;;;4.40;;
11037;SDS011;5572;49.540;11.932;2022-10-17T03:00:03;4.47;;;3.80;;
11037;SDS011;5572;49.540;11.932;2022-10-17T03:02:36;22.37;;;4.20;;
11037;SDS011;5572;49.540;11.932;2022-10-17T03:05:03;13.50;;;4.03;;
11037;SDS011;5572;49.540;11.932;2022-10-17T03:07:29;14.90;;;2.90;;
11037;SDS011;5572;49.540;11.932;2022-10-17T03:09:56;10.03;;;2.90;;
11037;SDS011;5572;49.540;11.932;2022-10-17T03:12:23;4.00;;;2.50;;
11037;SDS011;5572;49.540;11.932;2022-10-17T03:14:50;2.70;;;2.50;;
11037;SDS011;5572;49.540;11.932;2022-10-17T03:17:16;3.37;;;3.00;;
11037;SDS011;5572;49.540;11.932;2022-10-17T03:19:43;6.90;;;2.80;;
11037;SDS011;5572;49.540;11.932;2022-10-17T03:22:09;18.17;;;3.33;;
11037;SDS011;5572;49.540;11.932;2022-10-17T03:24:35;23.93;;;3.80;;
11037;SDS011;5572;49.540;11.932;2022-10-17T03:27:02;29.60;;;4.27;;
11037;SDS011;5572;49.540;11.932;2022-10-17T03:29:30;2.77;;;2.40;;
11037;SDS011;5572;49.540;11.932;2022-10-17T03:31:56;4.13;;;3.50;;
11037;SDS011;5572;49.540;11.932;2022-10-17T03:34:22;6.87;;;3.50;;
11037;SDS011;5572;49.540;11.932;2022-10-17T03:36:49;15.87;;;3.30;;
11037;SDS011;5572;49.540;11.932;2022-10-17T03:39:15;11.30;;;4.10;;
11037;SDS011;5572;49.540;11.932;2022-10-17T03:41:41;17.90;;;4.33;;
11037;SDS011;5572;49.540;11.932;2022-10-17T03:44:08;49.33;;;4.10;;
11037;SDS011;5572;49.540;11.932;2022-10-17T03:46:35;26.60;;;3.87;;
11037;SDS011;5572;49.540;11.932;2022-10-17T03:49:02;45.63;;;3.93;;
11037;SDS011;5572;49.540;11.932;2022-10-17T03:51:28;8.93;;;3.40;;
11037;SDS011;5572;49.540;11.932;2022-10-17T03:53:55;33.03;;;3.53;;
11037;SDS011;5572;49.540;11.932;2022-10-17T03:56:22;23.10;;;3.67;;
11037;SDS011;5572;49.540;11.932;2022-10-17T03:58:48;9.77;;;4.90;;
11037;SDS011;5572;49.540;11.932;2022-10-17T04:01:15;4.57;;;3.10;;
11037;SDS011;5572;49.540;11.932;2022-10-17T04:03:43;5.37;;;3.03;;
11037;SDS011;5572;49.540;11.932;2022-10-17T04:06:10;4.97;;;3.10;;
11037;SDS011;5572;49.540;11.932;2022-10-17T04:08:37;15.43;;;3.50;;
11037;SDS011;5572;49.540;11.932;2022-10-17T04:11:04;5.90;;;3.30;;
11037;SDS011;5572;49.540;11.932;2022-10-17T04:13:31;4.37;;;3.07;;
11037;SDS011;5572;49.540;11.932;2022-10-17T04:15:58;31.83;;;3.77;;
11037;SDS011;5572;49.540;11.932;2022-10-17T04:18:25;5.10;;;3.07;;
11037;SDS011;5572;49.540;11.932;2022-10-17T04:20:52;11.33;;;2.70;;
11037;SDS011;5572;49.540;11.932;2022-10-17T04:23:19;17.30;;;6.67;;
11037;SDS011;5572;49.540;11.932;2022-10-17T04:25:45;8.63;;;5.43;;
11037;SDS011;5572;49.540;11.932;2022-10-17T04:28:12;80.40;;;6.33;;
11037;SDS011;5572;49.540;11.932;2022-10-17T04:30:38;75.83;;;4.43;;
11037;SDS011;5572;49.540;11.932;2022-10-17T04:33:04;14.07;;;3.40;;
11037;SDS011;5572;49.540;11.932;2022-10-17T04:35:31;22.80;;;3.13;;
11037;SDS011;5572;49.540;11.932;2022-10-17T04:37:59;6.17;;;2.40;;
11037;SDS011;5572;49.540;11.932;2022-10-17T04:40:25;2.53;;;2.33;;
11037;SDS011;5572;49.540;11.932;2022-10-17T04:42:51;30.73;;;3.10;;
11037;SDS011;5572;49.540;11.932;2022-10-17T04:45:18;3.07;;;2.40;;
11037;SDS011;5572;49.540;11.932;2022-10-17T04:47:44;12.10;;;2.80;;
11037;SDS011;5572;49.540;11.932;2022-10-17T04:50:10;12.50;;;2.07;;
11037;SDS011;5572;49.540;11.932;2022-10-17T04:52:37;19.70;;;2.80;;
11037;SDS011;5572;49.540;11.932;2022-10-17T04:55:05;5.13;;;2.53;;
11037;SDS011;5572;49.540;11.932;2022-10-17T04:57:32;130.20;;;4.20;;
11037;SDS011;5572;49.540;11.932;2022-10-17T04:59:59;5.47;;;2.47;;
11037;SDS011;5572;49.540;11.932;2022-10-17T05:02:25;2.90;;;2.40;;
11037;SDS011;5572;49.540;11.932;2022-10-17T05:04:51;32.93;;;3.10;;
11037;SDS011;5572;49.540;11.932;2022-10-17T05:07:18;28.77;;;2.73;;
11037;SDS011;5572;49.540;11.932;2022-10-17T05:09:44;6.10;;;2.20;;
11037;SDS011;5572;49.540;11.932;2022-10-17T05:12:12;2.80;;;2.50;;
11037;SDS011;5572;49.540;11.932;2022-10-17T05:14:38;6.07;;;2.03;;
11037;SDS011;5572;49.540;11.932;2022-10-17T05:17:05;16.97;;;2.17;;
11037;SDS011;5572;49.540;11.932;2022-10-17T05:19:31;3.17;;;2.27;;
11037;SDS011;5572;49.540;11.932;2022-10-17T05:21:57;4.77;;;2.20;;
11037;SDS011;5572;49.540;11.932;2022-10-17T05:24:24;5.23;;;2.07;;
11037;SDS011;5572;49.540;11.932;2022-10-17T05:26:50;8.43;;;2.30;;
11037;SDS011;5572;49.540;11.932;2022-10-17T05:29:18;4.50;;;2.37;;
11037;SDS011;5572;49.540;11.932;2022-10-17T05:31:44;2.70;;;2.17;;
11037;SDS011;5572;49.540;11.932;2022-10-17T05:34:11;4.77;;;2.40;;
11037;SDS011;5572;49.540;11.932;2022-10-17T05:36:37;4.40;;;2.40;;
11037;SDS011;5572;49.540;11.932;2022-10-17T05:39:04;2.70;;;2.50;;
11037;SDS011;5572;49.540;11.932;2022-10-17T05:41:30;5.20;;;2.17;;
11037;SDS011;5572;49.540;11.932;2022-10-17T05:43:57;3.87;;;2.10;;
11037;SDS011;5572;49.540;11.932;2022-10-17T05:46:24;2.90;;;2.27;;
11037;SDS011;5572;49.540;11.932;2022-10-17T05:48:51;4.67;;;2.57;;
11037;SDS011;5572;49.540;11.932;2022-10-17T05:51:19;2.73;;;2.53;;
11037;SDS011;5572;49.540;11.932;2022-10-17T05:53:46;5.10;;;3.07;;
11037;SDS011;5572;49.540;11.932;2022-10-17T05:56:12;4.10;;;2.70;;
11037;SDS011;5572;49.540;11.932;2022-10-17T05:58:39;12.67;;;3.03;;
11037;SDS011;5572;49.540;11.932;2022-10-17T06:01:06;56.43;;;3.23;;
11037;SDS011;5572;49.540;11.932;2022-10-17T06:03:34;13.07;;;2.77;;
11037;SDS011;5572;49.540;11.932;2022-10-17T06:06:03;39.57;;;3.10;;
11037;SDS011;5572;49.540;11.932;2022-10-17T06:08:30;28.13;;;3.07;;
11037;SDS011;5572;49.540;11.932;2022-10-17T06:10:56;73.83;;;4.20;;
11037;SDS011;5572;49.540;11.932;2022-10-17T06:13:23;8.93;;;3.47;;
11037;SDS011;5572;49.540;11.932;2022-10-17T06:15:49;122.03;;;5.03;;
11037;SDS011;5572;49.540;11.932;2022-10-17T06:18:16;24.90;;;3.50;;
11037;SDS011;5572;49.540;11.932;2022-10-17T06:20:44;24.07;;;4.53;;
11037;SDS011;5572;49.540;11.932;2022-10-17T06:23:10;38.30;;;4.50;;
11037;SDS011;5572;49.540;11.932;2022-10-17T06:25:37;16.83;;;4.43;;
11037;SDS011;5572;49.540;11.932;2022-10-17T06:28:03;6.20;;;4.93;;
11037;SDS011;5572;49.540;11.932;2022-10-17T06:30:29;6.27;;;3.20;;
11037;SDS011;5572;49.540;11.932;2022-10-17T06:32:56;4.50;;;2.93;;
11037;SDS011;5572;49.540;11.932;2022-10-17T06:35:22;19.47;;;3.27;;
11037;SDS011;5572;49.540;11.932;2022-10-17T06:37:50;19.90;;;3.30;;
11037;SDS011;5572;49.540;11.932;2022-10-17T06:40:16;22.87;;;3.20;;
11037;SDS011;5572;49.540;11.932;2022-10-17T06:42:43;16.77;;;3.73;;
11037;SDS011;5572;49.540;11.932;2022-10-17T06:45:09;33.73;;;4.07;;
11037;SDS011;5572;49.540;11.932;2022-10-17T06:47:36;17.37;;;4.43;;
11037;SDS011;5572;49.540;11.932;2022-10-17T06:50:02;36.53;;;4.83;;
11037;SDS011;5572;49.540;11.932;2022-10-17T06:52:29;43.60;;;5.13;;
11037;SDS011;5572;49.540;11.932;2022-10-17T06:54:56;38.90;;;5.47;;
11037;SDS011;5572;49.540;11.932;2022-10-17T06:57:23;19.63;;;5.03;;
11037;SDS011;5572;49.540;11.932;2022-10-17T06:59:49;59.60;;;5.33;;
11037;SDS011;5572;49.540;11.932;2022-10-17T07:02:15;23.77;;;4.67;;
11037;SDS011;5572;49.540;11.932;2022-10-17T07:04:42;27.50;;;5.30;;
11037;SDS011;5572;49.540;11.932;2022-10-17T07:07:10;27.43;;;5.23;;
11037;SDS011;5572;49.540;11.932;2022-10-17T07:09:37;64.70;;;5.53;;
11037;SDS011;5572;49.540;11.932;2022-10-17T07:12:05;44.07;;;5.80;;
11037;SDS011;5572;49.540;11.932;2022-10-17T07:14:32;40.07;;;5.00;;
11037;SDS011;5572;49.540;11.932;2022-10-17T07:16:58;44.63;;;6.00;;
11037;SDS011;5572;49.540;11.932;2022-10-17T07:19:25;35.07;;;5.50;;
11037;SDS011;5572;49.540;11.932;2022-10-17T07:21:52;10.60;;;4.73;;
11037;SDS011;5572;49.540;11.932;2022-10-17T07:24:18;29.73;;;5.30;;
11037;SDS011;5572;49.540;11.932;2022-10-17T07:26:45;21.77;;;6.40;;
11037;SDS011;5572;49.540;11.932;2022-10-17T07:29:12;22.03;;;5.50;;
11037;SDS011;5572;49.540;11.932;2022-10-17T07:31:39;28.80;;;6.77;;
11037;SDS011;5572;49.540;11.932;2022-10-17T07:34:05;10.87;;;5.93;;
11037;SDS011;5572;49.540;11.932;2022-10-17T07:36:31;21.83;;;6.43;;
11037;SDS011;5572;49.540;11.932;2022-10-17T07:38:58;40.27;;;6.10;;
11037;SDS011;5572;49.540;11.932;2022-10-17T07:41:24;13.07;;;6.50;;
11037;SDS011;5572;49.540;11.932;2022-10-17T07:43:51;7.07;;;5.40;;
11037;SDS011;5572;49.540;11.932;2022-10-17T07:46:18;12.13;;;6.27;;
11037;SDS011;5572;49.540;11.932;2022-10-17T07:48:45;13.00;;;6.97;;
11037;SDS011;5572;49.540;11.932;2022-10-17T07:51:11;8.10;;;6.43;;
11037;SDS011;5572;49.540;11.932;2022-10-17T07:53:38;9.33;;;6.30;;
11037;SDS011;5572;49.540;11.932;2022-10-17T07:56:05;12.37;;;8.33;;
11037;SDS011;5572;49.540;11.932;2022-10-17T07:58:31;10.63;;;6.47;;
11037;SDS011;5572;49.540;11.932;2022-10-17T08:00:59;16.93;;;10.57;;
11037;SDS011;5572;49.540;11.932;2022-10-17T08:03:27;7.83;;;5.37;;
11037;SDS011;5572;49.540;11.932;2022-10-17T08:05:55;6.50;;;4.90;;
11037;SDS011;5572;49.540;11.932;2022-10-17T08:08:22;6.37;;;5.23;;
11037;SDS011;5572;49.540;11.932;2022-10-17T08:10:48;5.43;;;4.40;;
11037;SDS011;5572;49.540;11.932;2022-10-17T08:13:15;6.43;;;4.23;;
11037;SDS011;5572;49.540;11.932;2022-10-17T08:15:41;5.23;;;4.77;;
11037;SDS011;5572;49.540;11.932;2022-10-17T08:18:08;9.17;;;4.77;;
11037;SDS011;5572;49.540;11.932;2022-10-17T08:20:35;12.53;;;5.27;;
11037;SDS011;5572;49.540;11.932;2022-10-17T08:23:02;6.10;;;4.07;;
11037;SDS011;5572;49.540;11.932;2022-10-17T08:25:28;7.87;;;4.90;;
11037;SDS011;5572;49.540;11.932;2022-10-17T08:27:54;4.40;;;4.00;;
11037;SDS011;5572;49.540;11.932;2022-10-17T08:30:21;6.77;;;5.40;;
11037;SDS011;5572;49.540;11.932;2022-10-17T08:32:47;11.20;;;4.67;;
11037;SDS011;5572;49.540;11.932;2022-10-17T08:35:14;9.13;;;5.27;;
11037;SDS011;5572;49.540;11.932;2022-10-17T08:37:41;4.63;;;3.30;;
11037;SDS011;5572;49.540;11.932;2022-10-17T08:40:09;6.67;;;3.00;;
11037;SDS011;5572;49.540;11.932;2022-10-17T08:42:50;9.93;;;3.20;;
11037;SDS011;5572;49.540;11.932;2022-10-17T08:45:23;4.10;;;3.50;;
11037;SDS011;5572;49.540;11.932;2022-10-17T08:47:53;3.20;;;3.00;;
11037;SDS011;5572;49.540;11.932;2022-10-17T08:50:23;4.43;;;3.17;;
11037;SDS011;5572;49.540;11.932;2022-10-17T08:52:52;3.30;;;3.00;;
11037;SDS011;5572;49.540;11.932;2022-10-17T08:55:21;4.07;;;3.00;;
11037;SDS011;5572;49.540;11.932;2022-10-17T08:57:49;4.20;;;3.60;;
11037;SDS011;5572;49.540;11.932;2022-10-17T09:00:16;4.67;;;3.03;;
11037;SDS011;5572;49.540;11.932;2022-10-17T09:02:47;7.83;;;3.10;;
11037;SDS011;5572;49.540;11.932;2022-10-17T09:05:22;10.83;;;3.10;;
11037;SDS011;5572;49.540;11.932;2022-10-17T09:07:52;5.47;;;3.23;;
11037;SDS011;5572;49.540;11.932;2022-10-17T09:10:24;6.47;;;2.60;;
11037;SDS011;5572;49.540;11.932;2022-10-17T09:12:58;3.10;;;2.80;;
11037;SDS011;5572;49.540;11.932;2022-10-17T09:15:30;2.87;;;2.60;;
11037;SDS011;5572;49.540;11.932;2022-10-17T09:17:59;2.80;;;2.60;;
11037;SDS011;5572;49.540;11.932;2022-10-17T09:20:29;4.07;;;2.57;;
11037;SDS011;5572;49.540;11.932;2022-10-17T09:22:57;7.40;;;2.93;;
11037;SDS011;5572;49.540;11.932;2022-10-17T09:25:25;6.00;;;3.10;;
11037;SDS011;5572;49.540;11.932;2022-10-17T09:27:52;4.00;;;3.13;;
11037;SDS011;5572;49.540;11.932;2022-10-17T09:30:24;3.27;;;2.97;;
11037;SDS011;5572;49.540;11.932;2022-10-17T09:32:52;3.93;;;3.53;;
11037;SDS011;5572;49.540;11.932;2022-10-17T09:35:19;4.37;;;3.60;;
11037;SDS011;5572;49.540;11.932;2022-10-17T09:37:45;3.83;;;3.40;;
11037;SDS011;5572;49.540;11.932;2022-10-17T09:40:17;4.23;;;3.80;;
11037;SDS011;5572;49.540;11.932;2022-10-17T09:42:44;5.13;;;3.10;;
11037;SDS011;5572;49.540;11.932;2022-10-17T09:45:15;3.83;;;3.53;;
11037;SDS011;5572;49.540;11.932;2022-10-17T09:47:44;4.63;;;3.07;;
11037;SDS011;5572;49.540;11.932;2022-10-17T09:50:15;5.63;;;3.23;;
11037;SDS011;5572;49.540;11.932;2022-10-17T09:52:43;3.70;;;3.03;;
11037;SDS011;5572;49.540;11.932;2022-10-17T09:55:16;5.50;;;3.97;;
11037;SDS011;5572;49.540;11.932;2022-10-17T09:57:53;7.27;;;4.67;;
11037;SDS011;5572;49.540;11.932;2022-10-17T10:00:21;5.80;;;3.30;;
11037;SDS011;5572;49.540;11.932;2022-10-17T10:02:47;5.03;;;3.60;;
11037;SDS011;5572;49.540;11.932;2022-10-17T10:05:14;4.23;;;3.40;;
11037;SDS011;5572;49.540;11.932;2022-10-17T10:07:41;3.97;;;3.20;;
11037;SDS011;5572;49.540;11.932;2022-10-17T10:10:23;6.70;;;3.60;;
11037;SDS011;5572;49.540;11.932;2022-10-17T10:13:00;3.90;;;3.60;;
11037;SDS011;5572;49.540;11.932;2022-10-17T10:15:32;6.17;;;3.57;;
11037;SDS011;5572;49.540;11.932;2022-10-17T10:17:58;4.10;;;3.47;;
11037;SDS011;5572;49.540;11.932;2022-10-17T10:20:27;3.20;;;3.00;;
11037;SDS011;5572;49.540;11.932;2022-10-17T10:23:09;3.27;;;2.70;;
11037;SDS011;5572;49.540;11.932;2022-10-17T10:25:37;3.67;;;3.30;;
11037;SDS011;5572;49.540;11.932;2022-10-17T10:28:14;9.10;;;3.35;;
11037;SDS011;5572;49.540;11.932;2022-10-17T10:30:44;3.73;;;2.83;;
11037;SDS011;5572;49.540;11.932;2022-10-17T10:33:12;3.30;;;3.00;;
11037;SDS011;5572;49.540;11.932;2022-10-17T10:35:38;7.63;;;3.00;;
11037;SDS011;5572;49.540;11.932;2022-10-17T10:38:07;8.67;;;5.67;;
11037;SDS011;5572;49.540;11.932;2022-10-17T10:40:35;8.73;;;6.50;;
11037;SDS011;5572;49.540;11.932;2022-10-17T10:43:05;3.70;;;3.40;;
11037;SDS011;5572;49.540;11.932;2022-10-17T10:45:39;5.77;;;3.57;;
11037;SDS011;5572;49.540;11.932;2022-10-17T10:48:13;4.37;;;3.20;;
11037;SDS011;5572;49.540;11.932;2022-10-17T10:50:43;3.30;;;3.07;;
11037;SDS011;5572;49.540;11.932;2022-10-17T10:53:17;4.60;;;3.33;;
11037;SDS011;5572;49.540;11.932;2022-10-17T10:55:46;3.30;;;3.10;;
11037;SDS011;5572;49.540;11.932;2022-10-17T10:58:22;3.87;;;3.47;;
11037;SDS011;5572;49.540;11.932;2022-10-17T11:00:49;4.00;;;3.30;;
11037;SDS011;5572;49.540;11.932;2022-10-17T11:03:17;4.23;;;3.27;;
11037;SDS011;5572;49.540;11.932;2022-10-17T11:05:47;4.37;;;3.13;;
11037;SDS011;5572;49.540;11.932;2022-10-17T11:08:17;3.93;;;3.53;;
11037;SDS011;5572;49.540;11.932;2022-10-17T11:10:48;4.60;;;3.83;;
11037;SDS011;5572;49.540;11.932;2022-10-17T11:13:18;3.77;;;3.47;;
11037;SDS011;5572;49.540;11.932;2022-10-17T11:15:48;4.20;;;3.80;;
11037;SDS011;5572;49.540;11.932;2022-10-17T11:18:19;4.23;;;3.93;;
11037;SDS011;5572;49.540;11.932;2022-10-17T11:20:49;4.03;;;3.70;;
11037;SDS011;5572;49.540;11.932;2022-10-17T11:23:18;8.73;;;3.90;;
11037;SDS011;5572;49.540;11.932;2022-10-17T11:25:46;4.40;;;4.00;;
11037;SDS011;5572;49.540;11.932;2022-10-17T11:28:15;4.37;;;3.97;;
11037;SDS011;5572;49.540;11.932;2022-10-17T11:30:44;4.27;;;3.87;;
11037;SDS011;5572;49.540;11.932;2022-10-17T11:33:13;5.07;;;4.23;;
11037;SDS011;5572;49.540;11.932;2022-10-17T11:35:40;4.37;;;3.90;;
11037;SDS011;5572;49.540;11.932;2022-10-17T11:38:12;4.67;;;4.27;;
11037;SDS011;5572;49.540;11.932;2022-10-17T11:40:43;3.87;;;3.57;;
11037;SDS011;5572;49.540;11.932;2022-10-17T11:43:12;5.13;;;4.37;;
11037;SDS011;5572;49.540;11.932;2022-10-17T11:45:40;7.23;;;4.83;;
11037;SDS011;5572;49.540;11.932;2022-10-17T11:48:09;4.57;;;4.10;;
11037;SDS011;5572;49.540;11.932;2022-10-17T11:50:39;5.23;;;4.30;;
11037;SDS011;5572;49.540;11.932;2022-10-17T11:53:08;19.43;;;12.67;;
11037;SDS011;5572;49.540;11.932;2022-10-17T11:55:36;48.22;;;18.50;;
11037;SDS011;5572;49.540;11.932;2022-10-17T11:58:12;5.83;;;4.23;;
11037;SDS011;5572;49.540;11.932;2022-10-17T12:00:51;5.85;;;4.72;;
11037;SDS011;5572;49.540;11.932;2022-10-17T12:03:24;5.00;;;4.57;;
11037;SDS011;5572;49.540;11.932;2022-10-17T12:05:56;5.40;;;4.50;;
11037;SDS011;5572;49.540;11.932;2022-10-17T12:08:24;6.65;;;4.72;;
11037;SDS011;5572;49.540;11.932;2022-10-17T12:10:54;7.10;;;4.85;;
11037;SDS011;5572;49.540;11.932;2022-10-17T12:19:17;7.30;;;4.63;;
11037;SDS011;5572;49.540;11.932;2022-10-17T12:24:32;6.65;;;4.88;;
11037;SDS011;5572;49.540;11.932;2022-10-17T12:29:40;4.53;;;4.18;;
11037;SDS011;5572;49.540;11.932;2022-10-17T12:32:10;5.50;;;5.00;;
11037;SDS011;5572;49.540;11.932;2022-10-17T12:34:37;5.32;;;4.82;;
11037;SDS011;5572;49.540;11.932;2022-10-17T12:37:03;7.63;;;5.30;;
11037;SDS011;5572;49.540;11.932;2022-10-17T12:45:01;9.47;;;7.27;;
11037;SDS011;5572;49.540;11.932;2022-10-17T12:47:47;9.67;;;7.60;;
11037;SDS011;5572;49.540;11.932;2022-10-17T12:53:01;8.20;;;7.40;;
11037;SDS011;5572;49.540;11.932;2022-10-17T12:55:30;5.93;;;5.32;;
11037;SDS011;5572;49.540;11.932;2022-10-17T12:57:57;7.32;;;5.30;;
11037;SDS011;5572;49.540;11.932;2022-10-17T13:00:28;5.38;;;4.78;;
11037;SDS011;5572;49.540;11.932;2022-10-17T13:03:02;10.77;;;5.23;;
11037;SDS011;5572;49.540;11.932;2022-10-17T13:05:30;6.72;;;5.55;;
11037;SDS011;5572;49.540;11.932;2022-10-17T13:07:58;7.13;;;4.97;;
11037;SDS011;5572;49.540;11.932;2022-10-17T13:10:25;6.03;;;5.40;;
11037;SDS011;5572;49.540;11.932;2022-10-17T13:12:55;6.22;;;5.40;;
11037;SDS011;5572;49.540;11.932;2022-10-17T13:15:23;5.75;;;5.22;;
11037;SDS011;5572;49.540;11.932;2022-10-17T13:17:58;10.98;;;5.80;;
11037;SDS011;5572;49.540;11.932;2022-10-17T13:20:26;8.97;;;5.50;;
11037;SDS011;5572;49.540;11.932;2022-10-17T13:22:53;11.27;;;7.53;;
11037;SDS011;5572;49.540;11.932;2022-10-17T13:25:19;7.55;;;6.25;;
11037;SDS011;5572;49.540;11.932;2022-10-17T13:27:46;6.83;;;5.30;;
11037;SDS011;5572;49.540;11.932;2022-10-17T13:30:24;6.35;;;5.75;;
11037;SDS011;5572;49.540;11.932;2022-10-17T13:32:50;5.75;;;5.00;;
11037;SDS011;5572;49.540;11.932;2022-10-17T13:35:23;8.05;;;5.55;;
11037;SDS011;5572;49.540;11.932;2022-10-17T13:37:50;18.35;;;6.43;;
11037;SDS011;5572;49.540;11.932;2022-10-17T13:40:18;97.85;;;13.73;;
11037;SDS011;5572;49.540;11.932;2022-10-17T13:42:44;7.75;;;5.70;;
11037;SDS011;5572;49.540;11.932;2022-10-17T13:45:14;8.77;;;7.40;;
11037;SDS011;5572;49.540;11.932;2022-10-17T13:47:42;11.70;;;7.00;;
11037;SDS011;5572;49.540;11.932;2022-10-17T13:50:12;8.40;;;6.18;;
11037;SDS011;5572;49.540;11.932;2022-10-17T13:52:43;23.10;;;15.93;;
11037;SDS011;5572;49.540;11.932;2022-10-17T13:55:13;21.65;;;13.15;;
11037;SDS011;5572;49.540;11.932;2022-10-17T13:57:40;21.55;;;17.55;;
11037;SDS011;5572;49.540;11.932;2022-10-17T14:00:09;15.30;;;12.85;;
11037;SDS011;5572;49.540;11.932;2022-10-17T14:02:36;25.65;;;16.73;;
11037;SDS011;5572;49.540;11.932;2022-10-17T14:05:07;20.80;;;15.55;;
11037;SDS011;5572;49.540;11.932;2022-10-17T14:07:36;10.90;;;8.75;;
11037;SDS011;5572;49.540;11.932;2022-10-17T14:10:05;139.57;;;20.65;;
11037;SDS011;5572;49.540;11.932;2022-10-17T14:12:31;20.92;;;15.23;;
11037;SDS011;5572;49.540;11.932;2022-10-17T14:14:58;11.50;;;6.70;;
11037;SDS011;5572;49.540;11.932;2022-10-17T14:17:27;9.33;;;8.10;;
11037;SDS011;5572;49.540;11.932;2022-10-17T14:19:55;13.53;;;8.93;;
11037;SDS011;5572;49.540;11.932;2022-10-17T14:22:24;7.65;;;6.85;;
11037;SDS011;5572;49.540;11.932;2022-10-17T14:24:51;9.73;;;6.27;;
11037;SDS011;5572;49.540;11.932;2022-10-17T14:27:27;9.27;;;7.10;;
11037;SDS011;5572;49.540;11.932;2022-10-17T14:29:54;6.17;;;5.50;;
11037;SDS011;5572;49.540;11.932;2022-10-17T14:32:22;6.00;;;5.30;;
11037;SDS011;5572;49.540;11.932;2022-10-17T14:34:51;6.33;;;5.60;;
11037;SDS011;5572;49.540;11.932;2022-10-17T14:37:21;7.47;;;6.07;;
11037;SDS011;5572;49.540;11.932;2022-10-17T14:39:49;8.77;;;5.77;;
11037;SDS011;5572;49.540;11.932;2022-10-17T14:42:17;8.80;;;6.40;;
11037;SDS011;5572;49.540;11.932;2022-10-17T14:44:46;7.20;;;5.23;;
11037;SDS011;5572;49.540;11.932;2022-10-17T14:47:14;7.20;;;5.70;;
11037;SDS011;5572;49.540;11.932;2022-10-17T14:49:42;11.00;;;5.37;;
11037;SDS011;5572;49.540;11.932;2022-10-17T14:52:23;5.67;;;4.93;;
11037;SDS011;5572;49.540;11.932;2022-10-17T14:54:50;6.10;;;4.93;;
11037;SDS011;5572;49.540;11.932;2022-10-17T14:57:17;11.57;;;4.93;;
11037;SDS011;5572;49.540;11.932;2022-10-17T14:59:45;7.80;;;4.80;;
11037;SDS011;5572;49.540;11.932;2022-10-17T15:02:12;5.43;;;4.63;;
11037;SDS011;5572;49.540;11.932;2022-10-17T15:04:38;4.70;;;4.30;;
11037;SDS011;5572;49.540;11.932;2022-10-17T15:07:05;7.30;;;4.87;;
11037;SDS011;5572;49.540;11.932;2022-10-17T15:09:31;6.37;;;5.10;;
11037;SDS011;5572;49.540;11.932;2022-10-17T15:11:58;6.60;;;4.60;;
11037;SDS011;5572;49.540;11.932;2022-10-17T15:14:25;7.00;;;3.87;;